.
WxDataArchive / Data Records for 2006-08-23
2006-08-22 August 2006 2006-08-24

Data Records for Wednesday, 23 August 2006

Time	Temp	Chill	HIndex	Humid	Dewpt	 Wind 	HiWind	WindDir	Rain 	Barom 
-----	----	-----	------	-----	-----	------	------	-------	-----	----- 
00:00	66.9	66.9	66.9	85	62.2	0	0	---	0.00	30.045 
00:05	66.8	66.8	66.8	86	62.5	0	0	---	0.00	30.045 
00:10	66.6	66.6	66.6	86	62.3	0	0	---	0.00	30.045 
00:15	66.4	66.4	66.4	86	62.1	0	0	---	0.00	30.047 
00:20	66.3	66.3	66.3	87	62.3	0	0	---	0.00	30.047 
00:25	66.3	66.3	66.3	87	62.3	0	0	---	0.00	30.047 
00:30	66.1	66.1	66.1	87	62.1	0	0	---	0.00	30.051 
00:35	66.0	66.0	66.0	87	62.0	0	0	---	0.00	30.051 
00:40	65.8	65.8	65.8	88	62.1	0	0	---	0.00	30.051 
00:45	65.6	65.6	65.6	88	61.9	0	0	---	0.00	30.051 
00:50	65.6	65.6	65.6	88	61.9	0	0	---	0.00	30.051 
00:55	65.5	65.5	65.5	89	62.2	0	0	---	0.00	30.051 
01:00	65.3	65.3	65.3	89	62.0	0	0	---	0.00	30.049 
01:05	65.3	65.3	65.3	90	62.3	0	0	---	0.00	30.049 
01:10	65.3	65.3	65.3	90	62.3	0	0	---	0.00	30.049 
01:15	65.2	65.2	65.2	90	62.2	0	0	---	0.00	30.047 
01:20	65.0	65.0	65.0	90	62.0	0	0	---	0.00	30.047 
01:25	65.0	65.0	65.0	90	62.0	0	0	---	0.00	30.047 
01:30	65.0	65.0	65.0	90	62.0	0	0	---	0.00	30.043 
01:35	64.8	64.8	64.8	90	61.8	0	0	---	0.00	30.043 
01:40	64.7	64.7	64.7	90	61.7	0	0	---	0.00	30.043 
01:45	64.5	64.5	64.5	90	61.5	0	0	---	0.00	30.043 
01:50	64.3	64.3	64.3	91	61.6	0	0	---	0.00	30.043 
01:55	64.2	64.2	64.2	91	61.5	0	0	---	0.00	30.043 
02:00	64.0	64.0	64.0	91	61.3	0	0	---	0.00	30.043 
02:05	64.0	64.0	64.0	91	61.3	0	0	---	0.00	30.043 
02:10	63.9	63.9	63.9	91	61.2	0	0	---	0.00	30.043 
02:15	63.7	63.7	63.7	92	61.3	0	0	---	0.00	30.040 
02:20	63.7	63.7	63.7	92	61.3	0	0	---	0.00	30.040 
02:25	63.5	63.5	63.5	92	61.1	0	0	---	0.00	30.040 
02:30	63.4	63.4	63.4	92	61.0	0	0	---	0.00	30.038 
02:35	63.4	63.4	63.4	92	61.0	0	0	---	0.00	30.038 
02:40	63.2	63.2	63.2	92	60.8	0	0	---	0.00	30.038 
02:45	63.2	63.2	63.2	92	60.8	0	0	---	0.00	30.035 
02:50	63.2	63.2	63.2	93	61.1	0	0	---	0.00	30.035 
02:55	63.1	63.1	63.1	93	61.0	0	0	---	0.00	30.035 
03:00	63.1	63.1	63.1	93	61.0	0	0	---	0.00	30.035 
03:05	62.9	62.9	62.9	93	60.8	0	0	---	0.00	30.035 
03:10	62.9	62.9	62.9	93	60.8	0	0	---	0.00	30.035 
03:15	62.7	62.7	62.7	93	60.6	0	0	---	0.00	30.034 
03:20	62.6	62.6	62.6	93	60.5	0	0	---	0.00	30.034 
03:25	62.6	62.6	62.6	93	60.5	0	0	---	0.00	30.034 
03:30	62.6	62.6	62.6	93	60.5	0	0	---	0.00	30.029 
03:35	62.6	62.6	62.6	94	60.8	0	0	---	0.00	30.029 
03:40	62.6	62.6	62.6	94	60.8	0	0	---	0.00	30.029 
03:45	62.7	62.7	62.7	94	60.9	0	0	---	0.00	30.031 
03:50	62.7	62.7	62.7	94	60.9	0	0	---	0.00	30.031 
03:55	62.7	62.7	62.7	94	60.9	0	0	---	0.00	30.031 
04:00	62.7	62.7	62.7	94	60.9	0	0	---	0.00	30.031 
04:05	62.9	62.9	62.9	95	61.4	0	0	---	0.00	30.031 
04:10	63.1	63.1	63.1	95	61.6	0	0	---	0.00	30.031 
04:15	63.2	63.2	63.2	95	61.7	0	0	---	0.00	30.029 
04:20	63.2	63.2	63.2	95	61.7	0	0	---	0.00	30.029 
04:25	63.4	63.4	63.4	95	61.9	0	0	---	0.00	30.029 
04:30	63.4	63.4	63.4	95	61.9	0	0	---	0.00	30.025 
04:35	63.5	63.5	63.5	95	62.0	0	0	---	0.00	30.025 
04:40	63.5	63.5	63.5	95	62.0	0	0	---	0.00	30.025 
04:45	63.7	63.7	63.7	95	62.2	0	0	---	0.00	30.018 
04:50	63.7	63.7	63.7	94	61.9	0	0	---	0.00	30.018 
04:55	63.9	63.9	63.9	94	62.1	0	0	---	0.00	30.018 
05:00	64.0	64.0	64.0	94	62.2	0	0	---	0.00	30.015 
05:05	64.2	64.2	64.2	94	62.4	0	0	---	0.00	30.015 
05:10	64.2	64.2	64.2	93	62.1	0	0	---	0.00	30.015 
05:15	64.3	64.3	64.3	93	62.2	0	0	---	0.00	30.007 
05:20	64.3	64.3	64.3	93	62.2	0	0	---	0.00	30.007 
05:25	64.5	64.5	64.5	93	62.4	0	0	---	0.00	30.007 
05:30	64.5	64.5	64.5	92	62.1	0	0	---	0.00	30.004 
05:35	64.7	64.7	64.7	92	62.3	0	0	---	0.00	30.004 
05:40	64.8	64.8	64.8	91	62.1	0	0	---	0.00	30.004 
05:45	64.8	64.8	64.8	91	62.1	0	0	---	0.00	30.009 
05:50	64.8	64.8	64.8	90	61.8	0	0	---	0.00	30.009 
05:55	64.7	64.7	64.7	90	61.7	0	0	---	0.00	30.009 
06:00	64.7	64.7	64.7	89	61.4	0	0	---	0.00	30.018 
06:05	64.5	64.5	64.5	89	61.2	0	0	---	0.00	30.018 
06:10	64.3	64.3	64.3	89	61.0	0	0	---	0.00	30.018 
06:15	64.2	64.2	64.2	90	61.2	0	0	---	0.00	30.022 
06:20	64.0	64.0	64.0	90	61.0	0	0	---	0.00	30.022 
06:25	64.0	64.0	64.0	90	61.0	0	0	---	0.00	30.022 
06:30	63.9	63.9	63.9	90	60.9	0	0	---	0.00	30.021 
06:35	63.9	63.9	63.9	91	61.2	0	0	---	0.00	30.021 
06:40	63.9	63.9	63.9	91	61.2	0	0	---	0.00	30.021 
06:45	64.0	64.0	64.0	91	61.3	0	0	---	0.00	30.025 
06:50	64.3	64.3	64.3	90	61.3	0	0	---	0.00	30.025 
06:55	64.5	64.5	64.5	90	61.5	0	0	---	0.00	30.025 
07:00	64.5	64.5	64.5	89	61.2	0	0	---	0.00	30.022 
07:05	64.5	64.5	64.5	89	61.2	0	0	---	0.00	30.022 
07:10	64.7	64.7	64.7	89	61.4	0	0	---	0.00	30.022 
07:15	64.7	64.7	64.7	89	61.4	0	0	---	0.00	30.026 
07:20	64.8	64.8	64.8	89	61.5	0	0	---	0.00	30.026 
07:25	65.0	65.0	65.0	89	61.7	0	0	---	0.00	30.026 
07:30	65.0	65.0	65.0	89	61.7	0	0	---	0.00	30.028 
07:35	65.0	65.0	65.0	88	61.4	0	0	---	0.00	30.028 
07:40	65.2	65.2	65.2	88	61.6	0	0	---	0.00	30.028 
07:45	65.3	65.3	65.3	89	62.0	0	0	---	0.00	30.030 
07:50	65.6	65.6	65.6	88	61.9	0	0	---	0.00	30.030 
07:55	65.8	65.8	65.8	87	61.8	0	0	---	0.00	30.030 
08:00	66.0	66.0	66.0	87	62.0	0	0	---	0.00	30.027 
08:05	66.3	66.3	66.3	87	62.3	0	0	---	0.00	30.027 
08:10	66.4	66.4	66.4	86	62.1	0	0	---	0.00	30.027 
08:15	66.4	66.4	66.4	86	62.1	0	0	---	0.00	30.038 
08:20	66.6	66.6	66.6	85	61.9	0	0	---	0.00	30.038 
08:25	67.1	67.1	67.1	84	62.1	0	0	---	0.00	30.038 
08:30	67.8	67.8	67.8	84	62.8	0	0	---	0.00	30.036 
08:35	68.6	68.6	68.6	82	62.9	0	0	---	0.00	30.036 
08:40	69.6	69.6	69.6	77	62.1	0	0	---	0.00	30.036 
08:45	70.8	70.8	70.8	75	62.5	0	0	---	0.00	30.032 
08:50	71.6	71.6	71.6	73	62.5	0	0	---	0.00	30.032 
08:55	72.3	72.3	72.3	71	62.4	0	1	315	0.00	30.032 
09:00	72.8	72.8	72.8	69	62.0	0	0	---	0.00	30.036 
09:05	72.8	72.8	72.8	66	60.8	0	0	---	0.00	30.036 
09:10	73.0	73.0	73.0	64	60.1	0	1	315	0.00	30.036 
09:15	73.3	73.3	73.3	63	59.9	0	0	---	0.00	30.038 
09:20	73.9	73.9	73.9	65	61.4	0	1	315	0.00	30.038 
09:25	74.2	74.2	74.2	63	60.8	0	1	315	0.00	30.038 
09:30	74.6	74.6	74.6	60	59.8	0	1	315	0.00	30.035 
09:35	74.9	74.9	74.9	58	59.1	0	2	315	0.00	30.035 
09:40	74.7	74.7	74.7	57	58.4	0	1	315	0.00	30.035 
09:45	74.9	74.9	74.9	56	58.1	0	0	---	0.00	30.033 
09:50	75.3	75.3	77.6	57	59.0	0	1	315	0.00	30.033 
09:55	76.0	76.0	78.1	53	57.6	0	1	315	0.00	30.033 
10:00	76.7	76.7	78.4	51	57.2	0	1	315	0.00	30.027 
10:05	77.4	77.4	78.8	49	56.7	0	1	315	0.00	30.027 
10:10	77.7	77.7	79.0	50	57.6	0	1	315	0.00	30.027 
10:15	78.5	78.5	79.4	47	56.6	0	2	315	0.00	30.026 
10:20	78.8	78.8	78.9	36	49.6	0	2	315	0.00	30.026 
10:25	79.6	79.6	79.0	31	46.3	0	2	315	0.00	30.026 
10:30	80.3	80.3	79.7	35	50.1	0	2	338	0.00	30.023 
10:35	80.9	80.9	80.0	33	49.1	0	2	338	0.00	30.023 
10:40	80.5	80.5	80.1	38	52.5	0	1	338	0.00	30.023 
10:45	80.5	80.5	79.6	31	47.1	1	2	338	0.00	30.023 
10:50	80.9	80.9	79.7	30	46.5	2	7	68	0.00	30.023 
10:55	81.1	81.1	79.7	28	44.9	1	3	68	0.00	30.023 
11:00	80.7	80.7	79.5	28	44.5	2	6	90	0.00	30.030 
11:05	80.7	80.7	79.7	31	47.2	2	4	90	0.00	30.030 
11:10	80.7	80.7	79.5	29	45.5	1	3	90	0.00	30.030 
11:15	81.2	81.2	79.9	30	46.8	1	3	90	0.00	30.036 
11:20	81.4	81.4	80.1	31	47.8	1	3	90	0.00	30.036 
11:25	81.4	81.4	80.1	31	47.8	2	5	112	0.00	30.036 
11:30	81.6	81.6	80.5	33	49.7	0	2	45	0.00	30.032 
11:35	81.8	81.8	80.3	29	46.4	0	3	45	0.00	30.032 
11:40	82.4	82.4	80.8	30	47.8	1	3	22	0.00	30.032 
11:45	82.6	82.6	80.9	30	48.0	1	4	90	0.00	30.022 
11:50	83.2	83.2	81.6	32	50.2	0	2	90	0.00	30.022 
11:55	82.6	82.6	81.0	31	48.9	0	2	22	0.00	30.022 
12:00	82.8	82.8	80.9	28	46.3	1	2	338	0.00	30.029 
12:05	83.2	83.2	81.3	29	47.6	1	5	22	0.00	30.029 
12:10	82.8	82.8	80.8	27	45.4	2	5	90	0.00	30.029 
12:15	82.6	82.6	80.8	28	46.2	2	5	112	0.00	30.026 
12:20	82.2	82.2	80.6	30	47.7	0	2	112	0.00	30.026 
12:25	82.4	82.4	81.2	35	52.0	1	4	112	0.00	30.026 
12:30	82.2	82.2	80.6	30	47.7	0	4	112	0.00	30.027 
12:35	82.0	82.0	80.9	35	51.6	1	3	45	0.00	30.027 
12:40	82.4	82.4	81.1	34	51.2	1	4	45	0.00	30.027 
12:45	82.8	82.8	81.2	31	49.0	1	3	68	0.00	30.022 
12:50	83.0	83.0	81.7	35	52.5	1	2	22	0.00	30.022 
12:55	83.4	83.4	81.6	31	49.6	2	5	90	0.00	30.022 
13:00	83.6	83.6	81.8	31	49.7	1	3	315	0.00	30.019 
13:05	83.4	83.4	81.8	33	51.2	1	3	315	0.00	30.019 
13:10	83.8	83.8	81.9	31	49.9	1	3	248	0.00	30.019 
13:15	83.6	83.6	81.8	31	49.7	1	3	45	0.00	30.012 
13:20	83.6	83.6	81.8	31	49.7	1	3	45	0.00	30.012 
13:25	84.0	84.0	82.2	32	50.9	1	3	22	0.00	30.012 
13:30	84.0	84.0	82.6	35	53.4	2	4	90	0.00	30.005 
13:35	83.6	83.6	81.7	30	48.9	2	4	45	0.00	30.005 
13:40	83.2	83.2	82.0	36	53.4	1	4	68	0.00	30.005 
13:45	82.8	82.8	81.2	32	49.9	2	5	90	0.00	29.993 
13:50	83.2	83.2	81.9	35	52.7	1	3	90	0.00	29.993 
13:55	84.0	84.0	82.6	35	53.4	0	2	0	0.00	29.993 
14:00	84.1	84.1	82.3	32	51.0	1	4	248	0.00	30.002 
14:05	84.3	84.3	82.3	30	49.5	1	2	270	0.00	30.002 
14:10	84.7	84.7	82.5	29	48.9	2	4	292	0.00	30.002 
14:15	84.7	84.7	82.6	30	49.8	1	3	315	0.00	29.998 
14:20	84.9	84.9	82.7	29	49.1	0	2	338	0.00	29.998 
14:25	85.3	85.3	82.9	28	48.5	0	2	338	0.00	29.998 
14:30	84.9	84.9	82.8	30	50.0	1	4	338	0.00	29.990 
14:35	84.9	84.9	82.7	29	49.1	1	4	45	0.00	29.990 
14:40	84.9	84.9	82.6	28	48.1	1	4	90	0.00	29.990 
14:45	84.9	84.9	82.6	28	48.1	1	5	68	0.00	29.988 
14:50	85.1	85.1	82.9	30	50.1	1	3	338	0.00	29.988 
14:55	85.1	85.1	82.9	30	50.1	2	5	270	0.00	29.988 
15:00	84.5	84.5	82.2	28	47.8	2	4	270	0.00	29.981 
15:05	84.9	84.9	82.9	31	50.9	0	3	22	0.00	29.981 
15:10	85.3	85.3	83.2	31	51.2	1	4	292	0.00	29.981 
15:15	85.7	85.7	83.6	31	51.5	1	3	270	0.00	29.961 
15:20	85.9	85.9	83.4	28	49.0	1	4	90	0.00	29.961 
15:25	85.5	85.5	83.4	31	51.4	0	2	45	0.00	29.961 
15:30	85.3	85.3	82.8	27	47.5	1	4	45	0.00	29.954 
15:35	84.7	84.7	82.6	30	49.8	1	4	90	0.00	29.954 
15:40	84.5	84.5	82.6	32	51.4	0	1	270	0.00	29.954 
15:45	84.3	84.3	82.2	29	48.5	2	4	90	0.00	29.946 
15:50	84.1	84.1	82.0	29	48.4	0	2	90	0.00	29.946 
15:55	84.0	84.0	82.1	31	50.1	1	2	90	0.00	29.946 
16:00	84.3	84.3	82.3	30	49.5	0	3	90	0.00	29.944 
16:05	84.7	84.7	83.1	34	53.2	1	3	68	0.00	29.944 
16:10	84.9	84.9	82.8	30	50.0	1	2	68	0.00	29.944 
16:15	85.3	85.3	83.0	29	49.4	0	1	68	0.00	29.940 
16:20	85.1	85.1	82.7	28	48.3	0	1	68	0.00	29.940 
16:25	84.9	84.9	82.7	29	49.1	0	2	68	0.00	29.940 
16:30	84.7	84.7	82.7	31	50.7	0	3	270	0.00	29.936 
16:35	84.5	84.5	82.4	30	49.6	1	4	225	0.00	29.936 
16:40	84.5	84.5	82.5	31	50.5	1	2	292	0.00	29.936 
16:45	84.9	84.9	82.8	30	50.0	1	4	22	0.00	29.937 
16:50	84.9	84.9	83.4	35	54.2	1	5	90	0.00	29.937 
16:55	85.3	85.3	83.1	30	50.3	0	2	90	0.00	29.937 
17:00	85.5	85.5	83.2	29	49.6	0	2	90	0.00	29.938 
17:05	85.5	85.5	83.3	30	50.5	0	3	90	0.00	29.938 
17:10	85.3	85.3	83.0	29	49.4	0	1	90	0.00	29.938 
17:15	85.1	85.1	82.8	29	49.2	0	2	90	0.00	29.935 
17:20	85.5	85.5	83.2	29	49.6	1	3	90	0.00	29.935 
17:25	85.3	85.3	83.2	31	51.2	1	3	90	0.00	29.935 
17:30	84.9	84.9	82.9	31	50.9	1	4	90	0.00	29.925 
17:35	84.5	84.5	82.5	31	50.5	1	4	90	0.00	29.925 
17:40	84.3	84.3	82.4	31	50.3	1	4	90	0.00	29.925 
17:45	84.1	84.1	82.3	32	51.0	1	4	90	0.00	29.932 
17:50	84.0	84.0	82.0	30	49.2	1	3	90	0.00	29.932 
17:55	84.0	84.0	82.1	31	50.1	1	3	90	0.00	29.932 
18:00	83.8	83.8	82.1	32	50.8	0	2	90	0.00	29.928 
18:05	83.6	83.6	81.8	31	49.7	1	3	90	0.00	29.928 
18:10	83.4	83.4	81.7	32	50.4	1	3	90	0.00	29.928 
18:15	83.0	83.0	81.5	33	50.9	1	3	90	0.00	29.928 
18:20	83.0	83.0	81.6	34	51.7	0	2	90	0.00	29.928 
18:25	83.0	83.0	81.7	35	52.5	0	1	90	0.00	29.928 
18:30	83.0	83.0	81.5	33	50.9	0	2	90	0.00	29.926 
18:35	83.0	83.0	81.5	33	50.9	1	2	90	0.00	29.926 
18:40	82.8	82.8	81.4	34	51.5	0	1	90	0.00	29.926 
18:45	82.6	82.6	81.4	35	52.1	0	1	90	0.00	29.924 
18:50	82.4	82.4	81.2	35	52.0	0	1	90	0.00	29.924 
18:55	82.4	82.4	81.2	35	52.0	0	1	90	0.00	29.924 
19:00	82.4	82.4	81.3	36	52.7	0	1	90	0.00	29.912 
19:05	82.2	82.2	81.1	35	51.8	0	1	90	0.00	29.912 
19:10	81.8	81.8	80.9	36	52.2	0	0	---	0.00	29.912 
19:15	81.4	81.4	80.7	37	52.6	0	1	90	0.00	29.917 
19:20	81.1	81.1	80.6	39	53.8	0	0	---	0.00	29.917 
19:25	80.7	80.7	80.3	39	53.4	0	1	90	0.00	29.917 
19:30	80.5	80.5	80.2	39	53.2	0	1	90	0.00	29.934 
19:35	80.1	80.1	80.0	40	53.6	0	1	90	0.00	29.934 
19:40	79.9	79.9	79.9	41	54.1	0	0	---	0.00	29.934 
19:45	79.8	79.8	80.0	43	55.3	0	0	---	0.00	29.936 
19:50	79.4	79.4	79.8	43	54.9	0	1	90	0.00	29.936 
19:55	79.0	79.0	79.6	44	55.2	0	0	---	0.00	29.936 
20:00	78.6	78.6	79.4	45	55.5	0	1	90	0.00	29.947 
20:05	78.5	78.5	79.4	46	56.0	0	1	90	0.00	29.947 
20:10	78.3	78.3	79.2	46	55.8	0	1	90	0.00	29.947 
20:15	78.1	78.1	79.2	48	56.8	0	0	---	0.00	29.927 
20:20	77.6	77.6	79.0	50	57.5	0	0	---	0.00	29.927 
20:25	77.2	77.2	78.8	52	58.2	0	0	---	0.00	29.927 
20:30	76.7	76.7	78.4	50	56.6	0	0	---	0.00	29.934 
20:35	76.3	76.3	78.2	51	56.8	0	0	---	0.00	29.934 
20:40	76.1	76.1	78.1	51	56.6	0	0	---	0.00	29.934 
20:45	76.0	76.0	78.1	52	57.1	0	0	---	0.00	29.941 
20:50	76.0	76.0	78.1	54	58.1	0	0	---	0.00	29.941 
20:55	75.8	75.8	78.0	55	58.5	0	0	---	0.00	29.941 
21:00	75.6	75.6	77.8	58	59.8	0	0	---	0.00	29.939 
21:05	75.3	75.3	77.5	62	61.4	0	1	90	0.00	29.939 
21:10	74.9	74.9	74.9	63	61.4	0	0	---	0.00	29.939 
21:15	74.4	74.4	74.4	65	61.8	0	0	---	0.00	29.910 
21:20	73.7	73.7	73.7	69	62.9	0	1	90	0.00	29.910 
21:25	73.2	73.2	73.2	65	60.7	1	3	90	0.00	29.910 
21:30	73.3	73.3	73.3	63	59.9	0	2	90	0.00	29.896 
21:35	73.5	73.5	73.5	64	60.6	0	1	90	0.00	29.896 
21:40	73.5	73.5	73.5	64	60.6	0	1	90	0.00	29.896 
21:45	73.5	73.5	73.5	63	60.1	0	0	---	0.00	29.899 
21:50	73.5	73.5	73.5	64	60.6	0	0	---	0.00	29.899 
21:55	73.3	73.3	73.3	64	60.4	0	0	---	0.00	29.899 
22:00	73.2	73.2	73.2	64	60.3	0	1	90	0.00	29.907 
22:05	73.2	73.2	73.2	66	61.1	0	1	90	0.00	29.907 
22:10	73.0	73.0	73.0	66	61.0	0	0	---	0.00	29.907 
22:15	72.8	72.8	72.8	66	60.8	0	0	---	0.00	29.920 
22:20	72.7	72.7	72.7	67	61.1	0	0	---	0.00	29.920 
22:25	72.3	72.3	72.3	67	60.7	0	0	---	0.00	29.920 
22:30	72.1	72.1	72.1	67	60.5	0	0	---	0.00	29.920 
22:35	72.0	72.0	72.0	68	60.8	0	0	---	0.00	29.920 
22:40	71.8	71.8	71.8	69	61.1	0	0	---	0.00	29.920 
22:45	71.5	71.5	71.5	69	60.8	0	0	---	0.00	29.915 
22:50	71.1	71.1	71.1	69	60.4	0	0	---	0.00	29.915 
22:55	70.8	70.8	70.8	71	60.9	0	0	---	0.00	29.915 
23:00	70.4	70.4	70.4	71	60.5	0	0	---	0.00	29.915 
23:05	70.3	70.3	70.3	72	60.8	0	0	---	0.00	29.915 
23:10	69.9	69.9	69.9	73	60.8	0	0	---	0.00	29.915 
23:15	69.6	69.6	69.6	74	60.9	0	0	---	0.00	29.908 
23:20	69.3	69.3	69.3	75	61.0	0	0	---	0.00	29.908 
23:25	69.1	69.1	69.1	76	61.2	0	0	---	0.00	29.908 
23:30	68.9	68.9	68.9	76	61.0	0	0	---	0.00	29.905 
23:35	68.6	68.6	68.6	77	61.1	0	0	---	0.00	29.905 
23:40	68.4	68.4	68.4	77	60.9	0	0	---	0.00	29.905 
23:45	68.1	68.1	68.1	78	61.0	0	0	---	0.00	29.914 
23:50	67.9	67.9	67.9	79	61.1	0	0	---	0.00	29.914 
23:55	67.6	67.6	67.6	79	60.8	0	0	---	0.00	29.914 

CoCoRaHS
IN-AL-39
A2 Web Hosting
Creative Commons License
GoDaddy
Look for:

loaded 2017-12-12 16:36:59 • last modified 2010-11-18 10:43:29
Privacy PolicyDisclaimer
• wx.awcolley.com is powered by PmWiki v.2002016 •
• all content (unless otherwise noted) © 2017 A W Colley